sensor_id;sensor_type;location;lat;lon;timestamp;P1;durP1;ratioP1;P2;durP2;ratioP2
52942;SDS011;38809;53.300;6.614;2023-12-29T00:00:04;9.98;;;3.40;;
52942;SDS011;38809;53.300;6.614;2023-12-29T00:04:56;10.65;;;2.58;;
52942;SDS011;38809;53.300;6.614;2023-12-29T00:07:23;13.63;;;2.70;;
52942;SDS011;38809;53.300;6.614;2023-12-29T00:09:49;8.15;;;2.22;;
52942;SDS011;38809;53.300;6.614;2023-12-29T00:12:15;11.93;;;2.72;;
52942;SDS011;38809;53.300;6.614;2023-12-29T00:14:41;9.60;;;2.72;;
52942;SDS011;38809;53.300;6.614;2023-12-29T00:17:08;10.10;;;2.97;;
52942;SDS011;38809;53.300;6.614;2023-12-29T00:19:34;8.20;;;2.55;;
52942;SDS011;38809;53.300;6.614;2023-12-29T00:22:00;8.07;;;2.33;;
52942;SDS011;38809;53.300;6.614;2023-12-29T00:24:28;11.52;;;2.33;;
52942;SDS011;38809;53.300;6.614;2023-12-29T00:26:56;12.93;;;2.92;;
52942;SDS011;38809;53.300;6.614;2023-12-29T00:29:24;11.45;;;2.72;;
52942;SDS011;38809;53.300;6.614;2023-12-29T00:31:50;10.45;;;2.33;;
52942;SDS011;38809;53.300;6.614;2023-12-29T00:34:16;11.05;;;3.40;;
52942;SDS011;38809;53.300;6.614;2023-12-29T00:36:42;9.32;;;2.40;;
52942;SDS011;38809;53.300;6.614;2023-12-29T00:39:08;11.98;;;3.08;;
52942;SDS011;38809;53.300;6.614;2023-12-29T00:41:34;9.77;;;2.15;;
52942;SDS011;38809;53.300;6.614;2023-12-29T00:44:00;11.73;;;2.80;;
52942;SDS011;38809;53.300;6.614;2023-12-29T00:46:26;6.32;;;1.88;;
52942;SDS011;38809;53.300;6.614;2023-12-29T00:48:52;13.43;;;3.67;;
52942;SDS011;38809;53.300;6.614;2023-12-29T00:51:19;12.02;;;2.33;;
52942;SDS011;38809;53.300;6.614;2023-12-29T00:53:45;8.88;;;2.42;;
52942;SDS011;38809;53.300;6.614;2023-12-29T00:56:11;8.93;;;2.40;;
52942;SDS011;38809;53.300;6.614;2023-12-29T00:58:37;9.85;;;3.33;;
52942;SDS011;38809;53.300;6.614;2023-12-29T01:01:04;11.45;;;2.63;;
52942;SDS011;38809;53.300;6.614;2023-12-29T01:03:31;7.97;;;2.20;;
52942;SDS011;38809;53.300;6.614;2023-12-29T01:05:57;14.25;;;2.58;;
52942;SDS011;38809;53.300;6.614;2023-12-29T01:08:23;6.93;;;2.13;;
52942;SDS011;38809;53.300;6.614;2023-12-29T01:10:49;10.68;;;2.80;;
52942;SDS011;38809;53.300;6.614;2023-12-29T01:13:15;8.00;;;2.75;;
52942;SDS011;38809;53.300;6.614;2023-12-29T01:15:41;6.63;;;2.40;;
52942;SDS011;38809;53.300;6.614;2023-12-29T01:18:11;10.00;;;2.47;;
52942;SDS011;38809;53.300;6.614;2023-12-29T01:20:37;10.25;;;2.42;;
52942;SDS011;38809;53.300;6.614;2023-12-29T01:23:04;6.78;;;1.98;;
52942;SDS011;38809;53.300;6.614;2023-12-29T01:27:57;9.20;;;2.30;;
52942;SDS011;38809;53.300;6.614;2023-12-29T01:30:23;9.07;;;2.30;;
52942;SDS011;38809;53.300;6.614;2023-12-29T01:32:49;10.05;;;2.35;;
52942;SDS011;38809;53.300;6.614;2023-12-29T01:35:15;13.18;;;2.63;;
52942;SDS011;38809;53.300;6.614;2023-12-29T01:37:42;8.20;;;2.30;;
52942;SDS011;38809;53.300;6.614;2023-12-29T01:40:09;9.70;;;2.33;;
52942;SDS011;38809;53.300;6.614;2023-12-29T01:42:35;10.02;;;2.13;;
52942;SDS011;38809;53.300;6.614;2023-12-29T01:45:01;8.75;;;2.10;;
52942;SDS011;38809;53.300;6.614;2023-12-29T01:47:27;9.23;;;2.47;;
52942;SDS011;38809;53.300;6.614;2023-12-29T01:49:54;11.80;;;2.70;;
52942;SDS011;38809;53.300;6.614;2023-12-29T01:52:20;10.85;;;3.05;;
52942;SDS011;38809;53.300;6.614;2023-12-29T01:54:47;11.00;;;3.03;;
52942;SDS011;38809;53.300;6.614;2023-12-29T01:57:14;11.60;;;2.92;;
52942;SDS011;38809;53.300;6.614;2023-12-29T01:59:41;13.63;;;3.25;;
52942;SDS011;38809;53.300;6.614;2023-12-29T02:02:07;9.68;;;2.40;;
52942;SDS011;38809;53.300;6.614;2023-12-29T02:04:33;8.45;;;2.65;;
52942;SDS011;38809;53.300;6.614;2023-12-29T02:07:01;8.73;;;2.42;;
52942;SDS011;38809;53.300;6.614;2023-12-29T02:09:27;7.07;;;1.90;;
52942;SDS011;38809;53.300;6.614;2023-12-29T02:11:54;8.30;;;2.50;;
52942;SDS011;38809;53.300;6.614;2023-12-29T02:22:04;8.45;;;1.60;;
52942;SDS011;38809;53.300;6.614;2023-12-29T02:24:30;6.57;;;1.65;;
52942;SDS011;38809;53.300;6.614;2023-12-29T02:26:57;6.78;;;1.90;;
52942;SDS011;38809;53.300;6.614;2023-12-29T02:29:28;10.73;;;2.03;;
52942;SDS011;38809;53.300;6.614;2023-12-29T02:31:55;8.50;;;1.60;;
52942;SDS011;38809;53.300;6.614;2023-12-29T02:34:23;6.82;;;1.60;;
52942;SDS011;38809;53.300;6.614;2023-12-29T02:36:50;8.38;;;1.40;;
52942;SDS011;38809;53.300;6.614;2023-12-29T02:39:17;7.75;;;1.52;;
52942;SDS011;38809;53.300;6.614;2023-12-29T02:41:43;10.75;;;1.80;;
52942;SDS011;38809;53.300;6.614;2023-12-29T02:44:09;7.53;;;1.65;;
52942;SDS011;38809;53.300;6.614;2023-12-29T02:46:35;12.45;;;2.53;;
52942;SDS011;38809;53.300;6.614;2023-12-29T02:49:01;8.32;;;2.05;;
52942;SDS011;38809;53.300;6.614;2023-12-29T02:51:27;7.60;;;1.73;;
52942;SDS011;38809;53.300;6.614;2023-12-29T02:53:54;10.57;;;1.92;;
52942;SDS011;38809;53.300;6.614;2023-12-29T02:56:20;9.00;;;2.30;;
52942;SDS011;38809;53.300;6.614;2023-12-29T02:58:47;6.38;;;1.77;;
52942;SDS011;38809;53.300;6.614;2023-12-29T03:01:13;12.50;;;2.40;;
52942;SDS011;38809;53.300;6.614;2023-12-29T03:03:39;10.02;;;1.63;;
52942;SDS011;38809;53.300;6.614;2023-12-29T03:06:06;9.60;;;2.03;;
52942;SDS011;38809;53.300;6.614;2023-12-29T03:10:58;9.68;;;2.58;;
52942;SDS011;38809;53.300;6.614;2023-12-29T03:13:24;13.57;;;2.75;;
52942;SDS011;38809;53.300;6.614;2023-12-29T03:15:50;10.60;;;2.58;;
52942;SDS011;38809;53.300;6.614;2023-12-29T03:18:16;8.82;;;2.15;;
52942;SDS011;38809;53.300;6.614;2023-12-29T03:20:42;12.55;;;3.15;;
52942;SDS011;38809;53.300;6.614;2023-12-29T03:23:09;12.85;;;3.65;;
52942;SDS011;38809;53.300;6.614;2023-12-29T03:25:35;13.68;;;2.97;;
52942;SDS011;38809;53.300;6.614;2023-12-29T03:28:01;15.60;;;3.30;;
52942;SDS011;38809;53.300;6.614;2023-12-29T03:30:27;15.15;;;3.90;;
52942;SDS011;38809;53.300;6.614;2023-12-29T03:32:53;16.45;;;3.72;;
52942;SDS011;38809;53.300;6.614;2023-12-29T03:35:19;14.68;;;3.90;;
52942;SDS011;38809;53.300;6.614;2023-12-29T03:37:45;16.88;;;3.95;;
52942;SDS011;38809;53.300;6.614;2023-12-29T03:40:11;18.80;;;3.55;;
52942;SDS011;38809;53.300;6.614;2023-12-29T03:42:39;14.32;;;3.33;;
52942;SDS011;38809;53.300;6.614;2023-12-29T03:45:05;15.63;;;4.15;;
52942;SDS011;38809;53.300;6.614;2023-12-29T03:47:31;19.85;;;3.92;;
52942;SDS011;38809;53.300;6.614;2023-12-29T03:49:57;13.32;;;2.88;;
52942;SDS011;38809;53.300;6.614;2023-12-29T03:52:23;16.63;;;4.05;;
52942;SDS011;38809;53.300;6.614;2023-12-29T03:54:50;18.73;;;4.05;;
52942;SDS011;38809;53.300;6.614;2023-12-29T03:57:16;13.57;;;3.00;;
52942;SDS011;38809;53.300;6.614;2023-12-29T03:59:42;15.98;;;2.88;;
52942;SDS011;38809;53.300;6.614;2023-12-29T04:02:08;14.18;;;3.63;;
52942;SDS011;38809;53.300;6.614;2023-12-29T04:04:37;14.05;;;2.63;;
52942;SDS011;38809;53.300;6.614;2023-12-29T04:07:04;13.07;;;3.50;;
52942;SDS011;38809;53.300;6.614;2023-12-29T04:09:30;12.50;;;2.70;;
52942;SDS011;38809;53.300;6.614;2023-12-29T04:14:22;13.73;;;3.80;;
52942;SDS011;38809;53.300;6.614;2023-12-29T04:16:48;12.80;;;3.08;;
52942;SDS011;38809;53.300;6.614;2023-12-29T04:19:14;16.10;;;3.58;;
52942;SDS011;38809;53.300;6.614;2023-12-29T04:21:40;13.63;;;3.72;;
52942;SDS011;38809;53.300;6.614;2023-12-29T04:24:06;17.25;;;4.07;;
52942;SDS011;38809;53.300;6.614;2023-12-29T04:26:36;12.70;;;3.53;;
52942;SDS011;38809;53.300;6.614;2023-12-29T04:29:02;15.80;;;3.92;;
52942;SDS011;38809;53.300;6.614;2023-12-29T04:31:28;15.75;;;4.00;;
52942;SDS011;38809;53.300;6.614;2023-12-29T04:33:54;12.73;;;3.30;;
52942;SDS011;38809;53.300;6.614;2023-12-29T04:36:20;13.90;;;3.38;;
52942;SDS011;38809;53.300;6.614;2023-12-29T04:38:46;16.08;;;4.10;;
52942;SDS011;38809;53.300;6.614;2023-12-29T04:41:13;10.82;;;2.80;;
52942;SDS011;38809;53.300;6.614;2023-12-29T04:43:39;17.20;;;3.72;;
52942;SDS011;38809;53.300;6.614;2023-12-29T04:46:05;15.15;;;3.25;;
52942;SDS011;38809;53.300;6.614;2023-12-29T04:48:32;14.00;;;3.20;;
52942;SDS011;38809;53.300;6.614;2023-12-29T04:50:58;23.90;;;4.28;;
52942;SDS011;38809;53.300;6.614;2023-12-29T04:53:24;11.25;;;3.08;;
52942;SDS011;38809;53.300;6.614;2023-12-29T04:55:50;11.15;;;3.05;;
52942;SDS011;38809;53.300;6.614;2023-12-29T04:58:16;15.98;;;3.35;;
52942;SDS011;38809;53.300;6.614;2023-12-29T05:00:42;17.65;;;3.47;;
52942;SDS011;38809;53.300;6.614;2023-12-29T05:03:08;15.38;;;4.13;;
52942;SDS011;38809;53.300;6.614;2023-12-29T05:05:35;17.98;;;3.70;;
52942;SDS011;38809;53.300;6.614;2023-12-29T05:08:01;17.05;;;3.35;;
52942;SDS011;38809;53.300;6.614;2023-12-29T05:10:27;13.82;;;3.00;;
52942;SDS011;38809;53.300;6.614;2023-12-29T05:12:53;14.43;;;3.15;;
52942;SDS011;38809;53.300;6.614;2023-12-29T05:15:19;15.40;;;3.30;;
52942;SDS011;38809;53.300;6.614;2023-12-29T05:17:45;14.60;;;2.72;;
52942;SDS011;38809;53.300;6.614;2023-12-29T05:20:11;24.52;;;3.53;;
52942;SDS011;38809;53.300;6.614;2023-12-29T05:22:38;15.10;;;2.75;;
52942;SDS011;38809;53.300;6.614;2023-12-29T05:25:04;13.05;;;3.42;;
52942;SDS011;38809;53.300;6.614;2023-12-29T05:27:30;15.85;;;3.10;;
52942;SDS011;38809;53.300;6.614;2023-12-29T05:29:56;11.52;;;2.75;;
52942;SDS011;38809;53.300;6.614;2023-12-29T05:32:22;16.50;;;3.65;;
52942;SDS011;38809;53.300;6.614;2023-12-29T05:34:49;12.57;;;2.78;;
52942;SDS011;38809;53.300;6.614;2023-12-29T05:37:15;18.30;;;3.83;;
52942;SDS011;38809;53.300;6.614;2023-12-29T05:39:41;12.05;;;3.00;;
52942;SDS011;38809;53.300;6.614;2023-12-29T05:42:08;16.25;;;3.20;;
52942;SDS011;38809;53.300;6.614;2023-12-29T05:44:37;17.25;;;4.20;;
52942;SDS011;38809;53.300;6.614;2023-12-29T05:47:04;12.65;;;3.20;;
52942;SDS011;38809;53.300;6.614;2023-12-29T05:49:30;11.75;;;2.58;;
52942;SDS011;38809;53.300;6.614;2023-12-29T05:51:57;14.77;;;3.50;;
52942;SDS011;38809;53.300;6.614;2023-12-29T05:54:23;19.42;;;3.85;;
52942;SDS011;38809;53.300;6.614;2023-12-29T05:59:15;19.90;;;4.18;;
52942;SDS011;38809;53.300;6.614;2023-12-29T06:01:42;18.92;;;3.35;;
52942;SDS011;38809;53.300;6.614;2023-12-29T06:04:08;12.07;;;2.80;;
52942;SDS011;38809;53.300;6.614;2023-12-29T06:06:34;13.32;;;3.35;;
52942;SDS011;38809;53.300;6.614;2023-12-29T06:09:00;17.17;;;3.40;;
52942;SDS011;38809;53.300;6.614;2023-12-29T06:11:26;18.02;;;3.60;;
52942;SDS011;38809;53.300;6.614;2023-12-29T06:13:52;14.25;;;3.30;;
52942;SDS011;38809;53.300;6.614;2023-12-29T06:16:21;16.40;;;3.17;;
52942;SDS011;38809;53.300;6.614;2023-12-29T06:18:50;11.45;;;3.38;;
52942;SDS011;38809;53.300;6.614;2023-12-29T06:21:16;15.40;;;3.53;;
52942;SDS011;38809;53.300;6.614;2023-12-29T06:26:18;12.02;;;3.70;;
52942;SDS011;38809;53.300;6.614;2023-12-29T06:28:45;16.00;;;3.40;;
52942;SDS011;38809;53.300;6.614;2023-12-29T06:31:11;12.95;;;3.47;;
52942;SDS011;38809;53.300;6.614;2023-12-29T06:33:44;18.70;;;4.13;;
52942;SDS011;38809;53.300;6.614;2023-12-29T06:36:10;13.48;;;4.05;;
52942;SDS011;38809;53.300;6.614;2023-12-29T06:38:36;12.85;;;2.78;;
52942;SDS011;38809;53.300;6.614;2023-12-29T06:41:03;13.52;;;4.03;;
52942;SDS011;38809;53.300;6.614;2023-12-29T06:43:29;11.43;;;3.28;;
52942;SDS011;38809;53.300;6.614;2023-12-29T06:45:55;12.52;;;2.83;;
52942;SDS011;38809;53.300;6.614;2023-12-29T06:48:22;13.02;;;3.22;;
52942;SDS011;38809;53.300;6.614;2023-12-29T06:50:48;13.63;;;3.78;;
52942;SDS011;38809;53.300;6.614;2023-12-29T06:53:14;17.42;;;4.15;;
52942;SDS011;38809;53.300;6.614;2023-12-29T06:55:40;16.17;;;3.15;;
52942;SDS011;38809;53.300;6.614;2023-12-29T06:58:07;13.00;;;3.15;;
52942;SDS011;38809;53.300;6.614;2023-12-29T07:00:33;13.77;;;3.85;;
52942;SDS011;38809;53.300;6.614;2023-12-29T07:03:02;16.17;;;3.38;;
52942;SDS011;38809;53.300;6.614;2023-12-29T07:05:29;13.05;;;2.80;;
52942;SDS011;38809;53.300;6.614;2023-12-29T07:07:55;14.27;;;3.10;;
52942;SDS011;38809;53.300;6.614;2023-12-29T07:10:21;12.20;;;2.95;;
52942;SDS011;38809;53.300;6.614;2023-12-29T07:12:47;16.40;;;3.78;;
52942;SDS011;38809;53.300;6.614;2023-12-29T07:15:13;13.57;;;3.15;;
52942;SDS011;38809;53.300;6.614;2023-12-29T07:17:39;16.38;;;3.80;;
52942;SDS011;38809;53.300;6.614;2023-12-29T07:20:06;16.25;;;3.97;;
52942;SDS011;38809;53.300;6.614;2023-12-29T07:22:32;15.35;;;3.65;;
52942;SDS011;38809;53.300;6.614;2023-12-29T07:24:58;13.75;;;3.67;;
52942;SDS011;38809;53.300;6.614;2023-12-29T07:27:25;17.35;;;3.53;;
52942;SDS011;38809;53.300;6.614;2023-12-29T07:29:52;14.52;;;3.40;;
52942;SDS011;38809;53.300;6.614;2023-12-29T07:32:18;17.10;;;3.10;;
52942;SDS011;38809;53.300;6.614;2023-12-29T07:34:44;13.55;;;2.90;;
52942;SDS011;38809;53.300;6.614;2023-12-29T07:37:10;20.80;;;4.18;;
52942;SDS011;38809;53.300;6.614;2023-12-29T07:39:36;17.27;;;3.38;;
52942;SDS011;38809;53.300;6.614;2023-12-29T07:42:03;13.73;;;3.25;;
52942;SDS011;38809;53.300;6.614;2023-12-29T07:44:29;21.70;;;4.13;;
52942;SDS011;38809;53.300;6.614;2023-12-29T07:46:56;12.63;;;2.70;;
52942;SDS011;38809;53.300;6.614;2023-12-29T07:49:23;13.82;;;3.40;;
52942;SDS011;38809;53.300;6.614;2023-12-29T07:51:49;16.33;;;4.45;;
52942;SDS011;38809;53.300;6.614;2023-12-29T07:54:15;17.60;;;3.53;;
52942;SDS011;38809;53.300;6.614;2023-12-29T07:56:41;19.60;;;4.03;;
52942;SDS011;38809;53.300;6.614;2023-12-29T07:59:07;13.77;;;3.50;;
52942;SDS011;38809;53.300;6.614;2023-12-29T08:01:33;14.88;;;4.40;;
52942;SDS011;38809;53.300;6.614;2023-12-29T08:04:02;10.57;;;3.08;;
52942;SDS011;38809;53.300;6.614;2023-12-29T08:06:28;16.80;;;3.17;;
52942;SDS011;38809;53.300;6.614;2023-12-29T08:08:54;15.15;;;3.45;;
52942;SDS011;38809;53.300;6.614;2023-12-29T08:11:20;15.30;;;3.67;;
52942;SDS011;38809;53.300;6.614;2023-12-29T08:13:47;14.88;;;3.67;;
52942;SDS011;38809;53.300;6.614;2023-12-29T08:16:14;16.13;;;3.33;;
52942;SDS011;38809;53.300;6.614;2023-12-29T08:18:42;21.02;;;4.40;;
52942;SDS011;38809;53.300;6.614;2023-12-29T08:21:08;17.10;;;3.75;;
52942;SDS011;38809;53.300;6.614;2023-12-29T08:23:41;11.43;;;3.05;;
52942;SDS011;38809;53.300;6.614;2023-12-29T08:26:07;23.13;;;3.83;;
52942;SDS011;38809;53.300;6.614;2023-12-29T08:28:34;16.00;;;3.38;;
52942;SDS011;38809;53.300;6.614;2023-12-29T08:31:02;10.45;;;2.97;;
52942;SDS011;38809;53.300;6.614;2023-12-29T08:33:29;12.15;;;3.25;;
52942;SDS011;38809;53.300;6.614;2023-12-29T08:35:55;14.77;;;3.13;;
52942;SDS011;38809;53.300;6.614;2023-12-29T08:38:26;10.10;;;2.90;;
52942;SDS011;38809;53.300;6.614;2023-12-29T08:40:52;16.85;;;3.25;;
52942;SDS011;38809;53.300;6.614;2023-12-29T08:43:18;12.55;;;2.70;;
52942;SDS011;38809;53.300;6.614;2023-12-29T08:45:49;14.60;;;2.67;;
52942;SDS011;38809;53.300;6.614;2023-12-29T08:48:18;11.98;;;2.80;;
52942;SDS011;38809;53.300;6.614;2023-12-29T08:50:44;15.70;;;3.08;;
52942;SDS011;38809;53.300;6.614;2023-12-29T08:53:10;12.07;;;2.65;;
52942;SDS011;38809;53.300;6.614;2023-12-29T08:55:37;11.73;;;3.05;;
52942;SDS011;38809;53.300;6.614;2023-12-29T08:58:03;11.43;;;3.05;;
52942;SDS011;38809;53.300;6.614;2023-12-29T09:00:29;13.35;;;3.15;;
52942;SDS011;38809;53.300;6.614;2023-12-29T09:02:56;11.63;;;3.40;;
52942;SDS011;38809;53.300;6.614;2023-12-29T09:07:48;9.95;;;2.80;;
52942;SDS011;38809;53.300;6.614;2023-12-29T09:10:14;13.43;;;3.90;;
52942;SDS011;38809;53.300;6.614;2023-12-29T09:12:40;10.25;;;2.53;;
52942;SDS011;38809;53.300;6.614;2023-12-29T09:15:07;13.90;;;3.90;;
52942;SDS011;38809;53.300;6.614;2023-12-29T09:17:33;11.52;;;2.95;;
52942;SDS011;38809;53.300;6.614;2023-12-29T09:19:59;16.08;;;3.50;;
52942;SDS011;38809;53.300;6.614;2023-12-29T09:22:25;18.08;;;3.15;;
52942;SDS011;38809;53.300;6.614;2023-12-29T09:24:53;12.80;;;2.72;;
52942;SDS011;38809;53.300;6.614;2023-12-29T09:27:19;12.68;;;3.35;;
52942;SDS011;38809;53.300;6.614;2023-12-29T09:29:46;8.25;;;2.28;;
52942;SDS011;38809;53.300;6.614;2023-12-29T09:32:12;12.95;;;2.97;;
52942;SDS011;38809;53.300;6.614;2023-12-29T09:34:38;11.57;;;2.65;;
52942;SDS011;38809;53.300;6.614;2023-12-29T09:37:04;15.80;;;3.00;;
52942;SDS011;38809;53.300;6.614;2023-12-29T09:39:30;12.13;;;3.30;;
52942;SDS011;38809;53.300;6.614;2023-12-29T09:41:58;18.67;;;4.22;;
52942;SDS011;38809;53.300;6.614;2023-12-29T09:44:27;17.52;;;3.42;;
52942;SDS011;38809;53.300;6.614;2023-12-29T09:46:53;17.25;;;3.25;;
52942;SDS011;38809;53.300;6.614;2023-12-29T09:51:46;17.58;;;3.30;;
52942;SDS011;38809;53.300;6.614;2023-12-29T09:54:13;14.60;;;3.53;;
52942;SDS011;38809;53.300;6.614;2023-12-29T09:59:05;15.13;;;3.35;;
52942;SDS011;38809;53.300;6.614;2023-12-29T10:03:58;16.40;;;3.50;;
52942;SDS011;38809;53.300;6.614;2023-12-29T10:06:25;16.75;;;4.00;;
52942;SDS011;38809;53.300;6.614;2023-12-29T10:08:51;18.75;;;3.63;;
52942;SDS011;38809;53.300;6.614;2023-12-29T10:11:19;18.42;;;3.70;;
52942;SDS011;38809;53.300;6.614;2023-12-29T10:13:46;13.25;;;2.88;;
52942;SDS011;38809;53.300;6.614;2023-12-29T10:16:15;15.73;;;3.13;;
52942;SDS011;38809;53.300;6.614;2023-12-29T10:18:45;12.88;;;3.20;;
52942;SDS011;38809;53.300;6.614;2023-12-29T10:21:27;11.90;;;2.88;;
52942;SDS011;38809;53.300;6.614;2023-12-29T10:26:20;10.05;;;3.20;;
52942;SDS011;38809;53.300;6.614;2023-12-29T10:28:46;12.25;;;3.60;;
52942;SDS011;38809;53.300;6.614;2023-12-29T10:31:14;13.20;;;3.47;;
52942;SDS011;38809;53.300;6.614;2023-12-29T10:33:41;10.73;;;2.40;;
52942;SDS011;38809;53.300;6.614;2023-12-29T10:36:07;14.38;;;3.28;;
52942;SDS011;38809;53.300;6.614;2023-12-29T10:38:38;13.15;;;3.08;;
52942;SDS011;38809;53.300;6.614;2023-12-29T10:41:16;15.18;;;3.55;;
52942;SDS011;38809;53.300;6.614;2023-12-29T10:43:44;11.70;;;2.60;;
52942;SDS011;38809;53.300;6.614;2023-12-29T10:46:12;9.80;;;2.90;;
52942;SDS011;38809;53.300;6.614;2023-12-29T10:48:38;12.65;;;3.22;;
52942;SDS011;38809;53.300;6.614;2023-12-29T10:51:05;11.25;;;2.20;;
52942;SDS011;38809;53.300;6.614;2023-12-29T10:56:03;10.77;;;2.50;;
52942;SDS011;38809;53.300;6.614;2023-12-29T10:58:29;9.50;;;2.08;;
52942;SDS011;38809;53.300;6.614;2023-12-29T11:00:57;10.68;;;2.40;;
52942;SDS011;38809;53.300;6.614;2023-12-29T11:03:25;9.02;;;2.15;;
52942;SDS011;38809;53.300;6.614;2023-12-29T11:05:52;11.32;;;2.28;;
52942;SDS011;38809;53.300;6.614;2023-12-29T11:08:27;10.93;;;2.20;;
52942;SDS011;38809;53.300;6.614;2023-12-29T11:10:53;10.20;;;2.63;;
52942;SDS011;38809;53.300;6.614;2023-12-29T11:13:20;14.55;;;2.83;;
52942;SDS011;38809;53.300;6.614;2023-12-29T11:15:47;8.88;;;2.53;;
52942;SDS011;38809;53.300;6.614;2023-12-29T11:20:40;8.80;;;2.08;;
52942;SDS011;38809;53.300;6.614;2023-12-29T11:23:06;12.13;;;2.40;;
52942;SDS011;38809;53.300;6.614;2023-12-29T11:27:59;12.55;;;2.22;;
52942;SDS011;38809;53.300;6.614;2023-12-29T11:30:26;7.63;;;1.92;;
52942;SDS011;38809;53.300;6.614;2023-12-29T11:35:20;7.43;;;2.08;;
52942;SDS011;38809;53.300;6.614;2023-12-29T11:40:38;10.55;;;2.25;;
52942;SDS011;38809;53.300;6.614;2023-12-29T11:43:08;9.73;;;2.13;;
52942;SDS011;38809;53.300;6.614;2023-12-29T11:45:35;8.40;;;1.73;;
52942;SDS011;38809;53.300;6.614;2023-12-29T11:48:02;10.95;;;2.05;;
52942;SDS011;38809;53.300;6.614;2023-12-29T11:50:29;8.32;;;1.77;;
52942;SDS011;38809;53.300;6.614;2023-12-29T11:52:56;10.35;;;2.15;;
52942;SDS011;38809;53.300;6.614;2023-12-29T11:55:27;9.13;;;2.25;;
52942;SDS011;38809;53.300;6.614;2023-12-29T11:57:54;8.15;;;1.95;;
52942;SDS011;38809;53.300;6.614;2023-12-29T12:00:20;7.07;;;2.03;;
52942;SDS011;38809;53.300;6.614;2023-12-29T12:02:46;7.80;;;1.80;;
52942;SDS011;38809;53.300;6.614;2023-12-29T12:05:44;11.70;;;2.20;;
52942;SDS011;38809;53.300;6.614;2023-12-29T12:08:02;9.35;;;2.35;;
52942;SDS011;38809;53.300;6.614;2023-12-29T12:10:29;10.73;;;2.00;;
52942;SDS011;38809;53.300;6.614;2023-12-29T12:12:56;6.47;;;2.00;;
52942;SDS011;38809;53.300;6.614;2023-12-29T12:17:53;14.60;;;2.83;;
52942;SDS011;38809;53.300;6.614;2023-12-29T12:22:45;9.23;;;2.40;;
52942;SDS011;38809;53.300;6.614;2023-12-29T12:25:15;9.02;;;2.60;;
52942;SDS011;38809;53.300;6.614;2023-12-29T12:27:41;5.57;;;1.85;;
52942;SDS011;38809;53.300;6.614;2023-12-29T12:30:08;8.25;;;2.33;;
52942;SDS011;38809;53.300;6.614;2023-12-29T12:35:01;10.00;;;2.28;;
52942;SDS011;38809;53.300;6.614;2023-12-29T12:37:28;7.40;;;1.73;;
52942;SDS011;38809;53.300;6.614;2023-12-29T12:39:55;9.75;;;2.22;;
52942;SDS011;38809;53.300;6.614;2023-12-29T12:42:21;11.35;;;2.10;;
52942;SDS011;38809;53.300;6.614;2023-12-29T12:49:41;8.40;;;2.25;;
52942;SDS011;38809;53.300;6.614;2023-12-29T12:52:08;7.55;;;1.90;;
52942;SDS011;38809;53.300;6.614;2023-12-29T12:54:34;12.95;;;2.78;;
52942;SDS011;38809;53.300;6.614;2023-12-29T12:59:27;8.10;;;2.05;;
52942;SDS011;38809;53.300;6.614;2023-12-29T13:01:53;13.40;;;2.38;;
52942;SDS011;38809;53.300;6.614;2023-12-29T13:04:19;10.30;;;2.25;;
52942;SDS011;38809;53.300;6.614;2023-12-29T13:06:46;7.63;;;2.10;;
52942;SDS011;38809;53.300;6.614;2023-12-29T13:09:12;13.00;;;3.35;;
52942;SDS011;38809;53.300;6.614;2023-12-29T13:11:42;11.90;;;2.63;;
52942;SDS011;38809;53.300;6.614;2023-12-29T13:14:08;8.38;;;2.30;;
52942;SDS011;38809;53.300;6.614;2023-12-29T13:16:35;9.73;;;2.60;;
52942;SDS011;38809;53.300;6.614;2023-12-29T13:19:19;12.40;;;2.40;;
52942;SDS011;38809;53.300;6.614;2023-12-29T13:21:47;11.32;;;2.13;;
52942;SDS011;38809;53.300;6.614;2023-12-29T13:24:13;8.25;;;3.05;;
52942;SDS011;38809;53.300;6.614;2023-12-29T13:26:46;12.65;;;2.03;;
52942;SDS011;38809;53.300;6.614;2023-12-29T13:29:17;9.13;;;2.20;;
52942;SDS011;38809;53.300;6.614;2023-12-29T13:31:44;12.27;;;2.35;;
52942;SDS011;38809;53.300;6.614;2023-12-29T13:34:18;11.93;;;2.63;;
52942;SDS011;38809;53.300;6.614;2023-12-29T13:36:54;13.88;;;2.70;;
52942;SDS011;38809;53.300;6.614;2023-12-29T13:39:41;7.63;;;1.98;;
52942;SDS011;38809;53.300;6.614;2023-12-29T13:42:09;8.15;;;2.10;;
52942;SDS011;38809;53.300;6.614;2023-12-29T13:44:37;9.23;;;1.98;;
52942;SDS011;38809;53.300;6.614;2023-12-29T13:47:05;8.63;;;2.13;;
52942;SDS011;38809;53.300;6.614;2023-12-29T13:49:31;8.73;;;2.20;;
52942;SDS011;38809;53.300;6.614;2023-12-29T13:52:01;11.85;;;2.40;;
52942;SDS011;38809;53.300;6.614;2023-12-29T13:54:28;8.23;;;2.13;;
52942;SDS011;38809;53.300;6.614;2023-12-29T13:56:54;7.30;;;1.95;;
52942;SDS011;38809;53.300;6.614;2023-12-29T13:59:30;11.63;;;3.20;;
52942;SDS011;38809;53.300;6.614;2023-12-29T14:04:42;7.55;;;1.77;;
52942;SDS011;38809;53.300;6.614;2023-12-29T14:07:08;11.07;;;1.80;;
52942;SDS011;38809;53.300;6.614;2023-12-29T14:09:34;11.77;;;2.25;;
52942;SDS011;38809;53.300;6.614;2023-12-29T14:12:00;8.45;;;2.08;;
52942;SDS011;38809;53.300;6.614;2023-12-29T14:14:26;6.90;;;1.95;;
52942;SDS011;38809;53.300;6.614;2023-12-29T14:16:53;11.90;;;2.55;;
52942;SDS011;38809;53.300;6.614;2023-12-29T14:21:46;8.65;;;2.08;;
52942;SDS011;38809;53.300;6.614;2023-12-29T14:24:14;12.85;;;2.10;;
52942;SDS011;38809;53.300;6.614;2023-12-29T14:29:21;11.50;;;2.90;;
52942;SDS011;38809;53.300;6.614;2023-12-29T14:31:48;9.52;;;2.22;;
52942;SDS011;38809;53.300;6.614;2023-12-29T14:34:16;11.50;;;2.78;;
52942;SDS011;38809;53.300;6.614;2023-12-29T14:36:42;8.25;;;2.28;;
52942;SDS011;38809;53.300;6.614;2023-12-29T14:41:35;8.48;;;2.28;;
52942;SDS011;38809;53.300;6.614;2023-12-29T14:46:27;13.73;;;5.50;;
52942;SDS011;38809;53.300;6.614;2023-12-29T14:48:56;10.40;;;2.40;;
52942;SDS011;38809;53.300;6.614;2023-12-29T14:51:23;9.60;;;2.15;;
52942;SDS011;38809;53.300;6.614;2023-12-29T14:53:49;8.30;;;1.67;;
52942;SDS011;38809;53.300;6.614;2023-12-29T14:56:16;7.53;;;2.20;;
52942;SDS011;38809;53.300;6.614;2023-12-29T15:01:08;10.90;;;2.25;;
52942;SDS011;38809;53.300;6.614;2023-12-29T15:06:01;9.27;;;2.38;;
52942;SDS011;38809;53.300;6.614;2023-12-29T15:08:27;11.07;;;2.33;;
52942;SDS011;38809;53.300;6.614;2023-12-29T15:11:00;7.25;;;2.15;;
52942;SDS011;38809;53.300;6.614;2023-12-29T15:13:26;10.52;;;1.92;;
52942;SDS011;38809;53.300;6.614;2023-12-29T15:15:53;8.20;;;1.80;;
52942;SDS011;38809;53.300;6.614;2023-12-29T15:18:19;8.43;;;2.28;;
52942;SDS011;38809;53.300;6.614;2023-12-29T15:20:45;11.40;;;2.45;;
52942;SDS011;38809;53.300;6.614;2023-12-29T15:23:11;9.18;;;2.13;;
52942;SDS011;38809;53.300;6.614;2023-12-29T15:25:38;13.90;;;2.47;;
52942;SDS011;38809;53.300;6.614;2023-12-29T15:28:04;13.90;;;3.05;;
52942;SDS011;38809;53.300;6.614;2023-12-29T15:30:30;12.10;;;2.45;;
52942;SDS011;38809;53.300;6.614;2023-12-29T15:32:56;8.95;;;2.45;;
52942;SDS011;38809;53.300;6.614;2023-12-29T15:35:22;7.93;;;2.00;;
52942;SDS011;38809;53.300;6.614;2023-12-29T15:37:48;11.18;;;2.58;;
52942;SDS011;38809;53.300;6.614;2023-12-29T15:40:14;8.60;;;2.55;;
52942;SDS011;38809;53.300;6.614;2023-12-29T15:42:40;13.05;;;2.65;;
52942;SDS011;38809;53.300;6.614;2023-12-29T15:45:07;8.65;;;2.30;;
52942;SDS011;38809;53.300;6.614;2023-12-29T15:47:33;9.95;;;2.28;;
52942;SDS011;38809;53.300;6.614;2023-12-29T15:49:59;12.85;;;2.50;;
52942;SDS011;38809;53.300;6.614;2023-12-29T15:52:25;10.90;;;2.58;;
52942;SDS011;38809;53.300;6.614;2023-12-29T15:54:53;11.73;;;3.40;;